createdAt,value
2023-04-29T00:00:33.452Z,11.70
2023-04-29T00:03:04.042Z,11.80
2023-04-29T00:05:33.837Z,11.80
2023-04-29T00:08:02.181Z,11.70
2023-04-29T00:10:31.873Z,11.70
2023-04-29T00:13:00.424Z,11.70
2023-04-29T00:15:30.726Z,11.70
2023-04-29T00:18:01.738Z,11.70
2023-04-29T00:20:31.364Z,11.70
2023-04-29T00:23:00.227Z,11.70
2023-04-29T00:25:30.044Z,11.70
2023-04-29T00:28:04.419Z,11.70
2023-04-29T00:30:34.731Z,11.70
2023-04-29T00:33:03.000Z,11.70
2023-04-29T00:35:32.445Z,11.70
2023-04-29T00:38:00.740Z,11.70
2023-04-29T00:40:30.468Z,11.60
2023-04-29T00:42:58.747Z,11.60
2023-04-29T00:45:41.096Z,11.60
2023-04-29T00:48:10.368Z,11.60
2023-04-29T00:50:43.005Z,11.60
2023-04-29T00:53:12.980Z,11.60
2023-04-29T00:55:42.210Z,11.60
2023-04-29T00:58:11.818Z,11.60
2023-04-29T01:00:40.563Z,11.60
2023-04-29T01:03:13.708Z,11.60
2023-04-29T01:05:44.558Z,11.60
2023-04-29T01:08:20.699Z,11.50
2023-04-29T01:10:55.605Z,11.50
2023-04-29T01:13:32.908Z,11.50
2023-04-29T01:16:04.784Z,11.40
2023-04-29T01:18:37.902Z,11.50
2023-04-29T01:21:12.444Z,11.50
2023-04-29T01:23:41.867Z,11.50
2023-04-29T01:26:10.248Z,11.50
2023-04-29T01:28:47.787Z,11.50
2023-04-29T01:31:21.071Z,11.50
2023-04-29T01:33:56.860Z,11.50
2023-04-29T01:36:35.649Z,11.50
2023-04-29T01:39:25.150Z,11.40
2023-04-29T01:42:02.270Z,11.40
2023-04-29T01:44:31.966Z,11.40
2023-04-29T01:47:02.315Z,11.40
2023-04-29T01:49:31.101Z,11.40
2023-04-29T01:52:00.292Z,11.50
2023-04-29T01:54:33.687Z,11.50
2023-04-29T01:57:02.040Z,11.50
2023-04-29T01:59:31.634Z,11.50
2023-04-29T02:01:59.854Z,11.50
2023-04-29T02:04:28.662Z,11.50
2023-04-29T02:06:58.655Z,11.50
2023-04-29T02:09:28.474Z,11.60
2023-04-29T02:12:00.176Z,11.60
2023-04-29T02:14:28.359Z,11.50
2023-04-29T02:16:59.396Z,11.50
2023-04-29T02:19:28.659Z,11.60
2023-04-29T02:21:57.301Z,11.60
2023-04-29T02:24:25.460Z,11.60
2023-04-29T02:26:53.751Z,11.60
2023-04-29T02:29:23.748Z,11.60
2023-04-29T02:31:51.842Z,11.60
2023-04-29T02:34:22.250Z,11.60
2023-04-29T02:36:50.303Z,11.60
2023-04-29T02:39:20.009Z,11.60
2023-04-29T02:41:49.232Z,11.60
2023-04-29T02:44:17.407Z,11.60
2023-04-29T02:46:47.096Z,11.60
2023-04-29T02:49:15.194Z,11.60
2023-04-29T02:51:43.922Z,11.60
2023-04-29T02:54:14.919Z,11.70
2023-04-29T02:56:42.942Z,11.70
2023-04-29T02:59:11.143Z,11.70
2023-04-29T03:01:39.905Z,11.70
2023-04-29T03:04:10.035Z,11.70
2023-04-29T03:06:39.668Z,11.70
2023-04-29T03:09:07.974Z,11.60
2023-04-29T03:11:41.569Z,11.70
2023-04-29T03:14:09.829Z,11.60
2023-04-29T03:16:38.809Z,11.60
2023-04-29T03:19:07.375Z,11.70
2023-04-29T03:21:37.333Z,11.70
2023-04-29T03:24:06.699Z,11.70
2023-04-29T03:26:35.299Z,11.70
2023-04-29T03:29:03.601Z,11.70
2023-04-29T03:31:32.218Z,11.70
2023-04-29T03:34:00.229Z,11.70
2023-04-29T03:36:30.581Z,11.70
2023-04-29T03:38:59.878Z,11.70
2023-04-29T03:41:28.246Z,11.70
2023-04-29T03:44:01.004Z,11.70
2023-04-29T03:46:29.525Z,11.70
2023-04-29T03:49:01.633Z,11.70
2023-04-29T03:51:30.202Z,11.70
2023-04-29T03:54:00.168Z,11.70
2023-04-29T03:56:28.543Z,11.70
2023-04-29T03:58:56.866Z,11.80
2023-04-29T04:01:25.720Z,11.80
2023-04-29T04:03:53.754Z,11.80
2023-04-29T04:06:22.107Z,11.80
2023-04-29T04:08:50.351Z,11.80
2023-04-29T04:11:23.530Z,11.80
2023-04-29T04:13:54.195Z,11.80
2023-04-29T04:16:29.472Z,11.80
2023-04-29T04:19:00.290Z,11.90
2023-04-29T04:21:29.217Z,11.80
2023-04-29T04:23:57.728Z,11.80
2023-04-29T04:26:28.969Z,11.80
2023-04-29T04:28:57.846Z,11.90
2023-04-29T04:31:26.581Z,11.90
2023-04-29T04:33:56.920Z,11.80
2023-04-29T04:36:25.993Z,11.90
2023-04-29T04:38:55.944Z,11.90
2023-04-29T04:41:23.978Z,11.90
2023-04-29T04:43:53.874Z,11.90
2023-04-29T04:46:24.580Z,11.90
2023-04-29T04:48:53.874Z,11.90
2023-04-29T04:51:22.197Z,11.90
2023-04-29T04:53:50.122Z,12.00
2023-04-29T04:56:18.154Z,12.00
2023-04-29T04:58:46.360Z,12.00
2023-04-29T05:01:15.812Z,12.00
2023-04-29T05:03:44.141Z,12.00
2023-04-29T05:06:12.354Z,12.00
2023-04-29T05:08:40.382Z,12.00
2023-04-29T05:11:08.332Z,12.00
2023-04-29T05:13:36.450Z,12.00
2023-04-29T05:16:06.591Z,12.00
2023-04-29T05:18:36.088Z,12.00
2023-04-29T05:21:04.085Z,12.00
2023-04-29T05:23:32.172Z,12.00
2023-04-29T05:26:00.144Z,12.00
2023-04-29T05:28:28.457Z,12.00
2023-04-29T05:30:56.747Z,12.00
2023-04-29T05:33:24.762Z,12.00
2023-04-29T05:35:54.051Z,12.00
2023-04-29T05:38:22.232Z,12.00
2023-04-29T05:40:53.059Z,12.00
2023-04-29T05:43:21.100Z,12.00
2023-04-29T05:45:49.109Z,12.00
2023-04-29T05:48:17.287Z,12.00
2023-04-29T05:50:45.710Z,12.10
2023-04-29T05:53:14.979Z,12.10
2023-04-29T05:55:45.010Z,12.10
2023-04-29T05:58:13.297Z,12.10
2023-04-29T06:00:41.286Z,12.10
2023-04-29T06:03:09.385Z,12.10
2023-04-29T06:05:38.148Z,12.20
2023-04-29T06:08:07.062Z,12.20
2023-04-29T06:10:37.056Z,12.20
2023-04-29T06:13:05.088Z,12.20
2023-04-29T06:15:33.711Z,12.20
2023-04-29T06:18:01.689Z,12.20
2023-04-29T06:20:29.713Z,12.20
2023-04-29T06:22:57.837Z,12.20
2023-04-29T06:25:25.820Z,12.30
2023-04-29T06:27:55.157Z,12.30
2023-04-29T06:30:23.086Z,12.30
2023-04-29T06:32:51.193Z,12.30
2023-04-29T06:35:19.374Z,12.30
2023-04-29T06:37:47.620Z,12.30
2023-04-29T06:40:15.673Z,12.30
2023-04-29T06:42:43.709Z,12.40
2023-04-29T06:45:13.239Z,12.30
2023-04-29T06:47:41.270Z,12.40
2023-04-29T06:50:09.943Z,12.40
2023-04-29T06:52:37.874Z,12.40
2023-04-29T06:55:06.904Z,12.40
2023-04-29T06:57:34.869Z,12.40
2023-04-29T07:00:03.829Z,12.50
2023-04-29T07:02:33.796Z,12.50
2023-04-29T07:05:01.801Z,12.50
2023-04-29T07:07:30.287Z,12.50
2023-04-29T07:09:58.285Z,12.50
2023-04-29T07:12:26.264Z,12.50
2023-04-29T07:14:54.247Z,12.50
2023-04-29T07:17:22.236Z,12.50
2023-04-29T07:19:51.786Z,12.60
2023-04-29T07:22:20.218Z,12.60
2023-04-29T07:24:48.243Z,12.60
2023-04-29T07:27:16.387Z,12.60
2023-04-29T07:29:44.366Z,12.60
2023-04-29T07:32:12.700Z,12.60
2023-04-29T07:34:40.708Z,12.70
2023-04-29T07:37:10.046Z,12.60
2023-04-29T07:39:38.015Z,12.70
2023-04-29T07:42:06.109Z,12.70
2023-04-29T07:44:34.095Z,12.60
2023-04-29T07:47:02.013Z,12.60
2023-04-29T07:49:30.470Z,12.70
2023-04-29T07:51:58.646Z,12.70
2023-04-29T07:54:28.100Z,12.70
2023-04-29T07:56:56.057Z,12.70
2023-04-29T07:59:24.421Z,12.70
2023-04-29T08:01:52.387Z,12.70
2023-04-29T08:04:20.651Z,12.70
2023-04-29T08:06:48.961Z,12.70
2023-04-29T08:09:17.359Z,12.70
2023-04-29T08:11:47.017Z,12.80
2023-04-29T08:14:15.052Z,12.80
2023-04-29T08:16:43.079Z,12.80
2023-04-29T08:19:11.591Z,12.80
2023-04-29T08:21:39.555Z,12.80
2023-04-29T08:24:07.591Z,12.80
2023-04-29T08:26:35.901Z,12.80
2023-04-29T08:29:05.182Z,12.70
2023-04-29T08:31:34.362Z,12.80
2023-04-29T08:34:02.437Z,12.80
2023-04-29T08:36:30.387Z,12.80
2023-04-29T08:38:58.435Z,12.80
2023-04-29T08:41:26.791Z,12.80
2023-04-29T08:43:54.821Z,12.90
2023-04-29T08:46:27.088Z,12.90
2023-04-29T08:48:57.836Z,12.90
2023-04-29T08:51:25.845Z,12.90
2023-04-29T08:53:53.817Z,12.90
2023-04-29T08:56:22.160Z,13.00
2023-04-29T08:58:54.508Z,13.00
2023-04-29T09:01:25.427Z,13.00
2023-04-29T09:04:02.925Z,13.00
2023-04-29T09:06:33.192Z,13.00
2023-04-29T09:09:02.979Z,13.00
2023-04-29T09:11:32.290Z,13.00
2023-04-29T09:14:01.933Z,13.00
2023-04-29T09:16:31.573Z,13.10
2023-04-29T09:18:59.579Z,13.10
2023-04-29T09:21:28.561Z,13.10
2023-04-29T09:23:58.743Z,13.10
2023-04-29T09:26:27.064Z,13.10
2023-04-29T09:29:10.007Z,13.20
2023-04-29T09:31:40.671Z,13.20
2023-04-29T09:34:09.087Z,13.30
2023-04-29T09:36:41.707Z,13.30
2023-04-29T09:39:13.835Z,13.30
2023-04-29T09:41:43.196Z,13.30
2023-04-29T09:44:12.914Z,13.40
2023-04-29T09:46:42.271Z,13.40
2023-04-29T09:49:25.106Z,13.50
2023-04-29T09:51:58.016Z,13.50
2023-04-29T09:54:28.599Z,13.60
2023-04-29T09:56:57.974Z,13.60
2023-04-29T09:59:27.071Z,13.60
2023-04-29T10:01:58.539Z,13.60
2023-04-29T10:04:29.335Z,13.70
2023-04-29T10:06:57.902Z,13.70
2023-04-29T10:09:26.177Z,13.70
2023-04-29T10:11:55.209Z,13.80
2023-04-29T10:14:25.734Z,13.80
2023-04-29T10:17:03.848Z,13.90
2023-04-29T10:19:36.321Z,13.90
2023-04-29T10:22:10.062Z,13.90
2023-04-29T10:24:40.111Z,14.00
2023-04-29T10:27:09.693Z,14.00
2023-04-29T10:29:39.314Z,14.00
2023-04-29T10:32:11.175Z,14.10
2023-04-29T10:34:40.500Z,14.10
2023-04-29T10:37:10.988Z,14.10
2023-04-29T10:39:47.121Z,14.20
2023-04-29T10:42:27.197Z,14.20
2023-04-29T10:45:20.858Z,14.20
2023-04-29T10:48:18.958Z,14.20
2023-04-29T10:51:03.767Z,14.30
2023-04-29T10:53:32.232Z,14.30
2023-04-29T10:56:05.376Z,14.30
2023-04-29T10:58:42.234Z,14.40
2023-04-29T11:01:12.648Z,14.50
2023-04-29T11:04:01.333Z,14.40
2023-04-29T11:06:41.809Z,14.50
2023-04-29T11:09:12.069Z,14.50
2023-04-29T11:11:48.953Z,14.50
2023-04-29T11:14:24.779Z,14.60
2023-04-29T11:16:54.700Z,14.60
2023-04-29T11:19:26.886Z,14.60
2023-04-29T11:22:26.873Z,14.60
2023-04-29T11:24:57.679Z,14.70
2023-04-29T11:27:27.532Z,14.70
2023-04-29T11:29:59.049Z,14.70
2023-04-29T11:32:28.461Z,14.70
2023-04-29T11:35:09.401Z,14.80
2023-04-29T11:37:38.607Z,14.80
2023-04-29T11:40:08.105Z,14.80
2023-04-29T11:42:36.768Z,14.80
2023-04-29T11:45:05.247Z,14.90
2023-04-29T11:47:35.567Z,14.90
2023-04-29T11:50:06.150Z,14.90
2023-04-29T11:52:34.354Z,14.90
2023-04-29T11:55:02.385Z,14.90
2023-04-29T11:57:30.528Z,15.00
2023-04-29T11:59:59.031Z,15.00
2023-04-29T12:02:31.782Z,15.00
2023-04-29T12:05:01.067Z,15.00
2023-04-29T12:07:31.121Z,15.00
2023-04-29T12:10:00.241Z,15.00
2023-04-29T12:12:29.213Z,15.10
2023-04-29T12:14:57.481Z,15.10
2023-04-29T12:17:25.996Z,15.10
2023-04-29T12:19:54.232Z,15.10
2023-04-29T12:22:22.178Z,15.10
2023-04-29T12:24:54.621Z,15.20
2023-04-29T12:27:23.139Z,15.20
2023-04-29T12:29:53.805Z,15.20
2023-04-29T12:32:24.656Z,15.20
2023-04-29T12:34:53.726Z,15.20
2023-04-29T12:37:23.478Z,15.30
2023-04-29T12:39:55.611Z,15.30
2023-04-29T12:42:23.564Z,15.30
2023-04-29T12:44:51.716Z,15.30
2023-04-29T12:47:21.443Z,15.30
2023-04-29T12:49:50.072Z,15.40
2023-04-29T12:52:18.067Z,15.40
2023-04-29T12:54:46.086Z,15.50
2023-04-29T12:57:15.410Z,15.50
2023-04-29T12:59:43.400Z,15.60
2023-04-29T13:02:12.601Z,15.60
2023-04-29T13:04:41.131Z,15.70
2023-04-29T13:07:11.296Z,15.70
2023-04-29T13:09:41.883Z,15.80
2023-04-29T13:12:09.972Z,15.90
2023-04-29T13:14:39.409Z,16.00
2023-04-29T13:17:07.357Z,16.00
2023-04-29T13:22:08.029Z,16.20
2023-04-29T13:24:36.814Z,16.30
2023-04-29T13:27:05.759Z,16.50
2023-04-29T13:29:34.104Z,16.50
2023-04-29T13:32:03.477Z,16.60
2023-04-29T13:34:31.532Z,16.80
2023-04-29T13:36:59.485Z,16.80
2023-04-29T13:39:27.587Z,16.90
2023-04-29T13:41:58.919Z,17.00
2023-04-29T13:44:34.206Z,17.20
2023-04-29T13:47:09.490Z,17.20
2023-04-29T13:50:09.972Z,17.30
2023-04-29T13:53:18.700Z,17.40
2023-04-29T13:58:20.684Z,17.50
2023-04-29T14:01:05.352Z,17.60
2023-04-29T14:03:22.403Z,17.60
2023-04-29T14:05:50.725Z,17.70
2023-04-29T14:08:18.930Z,17.60
2023-04-29T14:10:47.334Z,17.60
2023-04-29T14:13:15.717Z,17.70
2023-04-29T14:15:43.724Z,17.70
2023-04-29T14:18:12.165Z,17.70
2023-04-29T14:20:41.463Z,17.80
2023-04-29T14:23:09.441Z,17.80
2023-04-29T14:25:37.362Z,17.90
2023-04-29T14:28:05.441Z,18.00
2023-04-29T14:30:33.493Z,18.10
2023-04-29T14:33:01.614Z,18.00
2023-04-29T14:35:30.074Z,18.10
2023-04-29T14:37:59.390Z,18.10
2023-04-29T14:40:27.701Z,18.20
2023-04-29T14:42:55.697Z,18.20
2023-04-29T14:45:23.719Z,18.30
2023-04-29T14:47:52.099Z,18.40
2023-04-29T14:50:20.303Z,18.50
2023-04-29T14:52:48.360Z,18.50
2023-04-29T14:55:18.009Z,18.60
2023-04-29T14:57:45.952Z,18.60
2023-04-29T15:00:15.488Z,18.60
2023-04-29T15:02:43.485Z,18.70
2023-04-29T15:05:11.558Z,18.80
2023-04-29T15:07:40.720Z,18.80
2023-04-29T15:10:09.999Z,18.80
2023-04-29T15:12:39.620Z,18.80
2023-04-29T15:15:09.191Z,18.90
2023-04-29T15:17:37.160Z,19.10
2023-04-29T15:20:05.946Z,19.20
2023-04-29T15:22:34.018Z,19.30
2023-04-29T15:25:02.059Z,19.40
2023-04-29T15:27:30.148Z,19.50
2023-04-29T15:30:00.154Z,19.60
2023-04-29T15:32:31.903Z,19.70
2023-04-29T15:35:00.719Z,19.80
2023-04-29T15:37:28.906Z,19.90
2023-04-29T15:39:57.579Z,20.00
2023-04-29T15:42:25.888Z,20.10
2023-04-29T15:44:53.930Z,20.20
2023-04-29T15:47:23.550Z,20.30
2023-04-29T15:49:52.437Z,20.40
2023-04-29T15:52:20.839Z,20.40
2023-04-29T15:54:48.895Z,20.40
2023-04-29T15:57:18.941Z,20.50
2023-04-29T15:59:46.909Z,20.50
2023-04-29T16:02:15.321Z,20.60
2023-04-29T16:04:45.053Z,20.50
2023-04-29T16:07:13.282Z,20.60
2023-04-29T16:09:41.311Z,20.60
2023-04-29T16:12:11.794Z,20.60
2023-04-29T16:14:39.795Z,20.60
2023-04-29T16:17:07.909Z,20.60
2023-04-29T16:19:36.948Z,20.60
2023-04-29T16:22:06.730Z,20.70
2023-04-29T16:24:34.712Z,20.60
2023-04-29T16:27:03.196Z,20.60
2023-04-29T16:29:31.271Z,20.60
2023-04-29T16:31:59.258Z,20.60
2023-04-29T16:34:27.279Z,20.60
2023-04-29T16:36:55.680Z,20.60
2023-04-29T16:39:25.113Z,20.50
2023-04-29T16:41:53.116Z,20.50
2023-04-29T16:44:21.547Z,20.50
2023-04-29T16:46:50.047Z,20.40
2023-04-29T16:49:25.281Z,20.40
2023-04-29T16:51:55.314Z,20.30
2023-04-29T16:54:25.228Z,20.30
2023-04-29T16:56:53.191Z,20.30
2023-04-29T16:59:21.256Z,20.20
2023-04-29T17:01:49.361Z,20.20
2023-04-29T17:04:17.664Z,20.20
2023-04-29T17:06:45.875Z,20.10
2023-04-29T17:09:17.288Z,20.00
2023-04-29T17:11:46.656Z,19.90
2023-04-29T17:14:14.583Z,19.90
2023-04-29T17:16:42.670Z,19.90
2023-04-29T17:19:11.168Z,19.80
2023-04-29T17:21:39.308Z,19.80
2023-04-29T17:24:07.478Z,19.70
2023-04-29T17:26:35.580Z,19.60
2023-04-29T17:29:05.053Z,19.40
2023-04-29T17:31:45.021Z,19.10
2023-04-29T17:34:18.858Z,18.90
2023-04-29T17:36:47.730Z,18.60
2023-04-29T17:39:16.296Z,18.40
2023-04-29T17:41:44.951Z,18.20
2023-04-29T17:44:14.389Z,18.00
2023-04-29T17:46:42.662Z,17.80
2023-04-29T17:49:10.958Z,17.60
2023-04-29T17:51:39.144Z,17.40
2023-04-29T17:54:08.717Z,17.20
2023-04-29T17:56:37.191Z,17.10
2023-04-29T17:59:06.251Z,16.90
2023-04-29T18:01:36.439Z,16.80
2023-04-29T18:04:04.871Z,16.60
2023-04-29T18:06:33.045Z,16.50
2023-04-29T18:09:01.151Z,16.40
2023-04-29T18:11:29.497Z,16.30
2023-04-29T18:13:58.596Z,16.20
2023-04-29T18:16:26.957Z,16.10
2023-04-29T18:18:57.159Z,16.00
2023-04-29T18:21:25.835Z,16.00
2023-04-29T18:23:54.016Z,15.90
2023-04-29T18:26:22.306Z,15.80
2023-04-29T18:28:50.655Z,15.70
2023-04-29T18:31:20.106Z,15.60
2023-04-29T18:33:48.417Z,15.60
2023-04-29T18:36:17.707Z,15.50
2023-04-29T18:38:45.741Z,15.50
2023-04-29T18:41:14.452Z,15.40
2023-04-29T18:43:42.555Z,15.40
2023-04-29T18:46:10.719Z,15.30
2023-04-29T18:48:40.487Z,15.30
2023-04-29T18:51:08.502Z,15.30
2023-04-29T18:53:37.868Z,15.20
2023-04-29T18:56:06.541Z,15.20
2023-04-29T18:58:34.789Z,15.20
2023-04-29T19:01:03.122Z,15.20
2023-04-29T19:03:31.535Z,15.10
2023-04-29T19:05:59.928Z,15.10
2023-04-29T19:08:28.010Z,15.00
2023-04-29T19:10:59.971Z,15.00
2023-04-29T19:13:29.438Z,15.00
2023-04-29T19:15:57.552Z,15.00
2023-04-29T19:18:26.201Z,15.00
2023-04-29T19:20:55.975Z,14.90
2023-04-29T19:23:23.994Z,14.90
2023-04-29T19:25:51.986Z,14.90
2023-04-29T19:28:21.370Z,14.90
2023-04-29T19:30:49.316Z,14.90
2023-04-29T19:33:17.408Z,14.80
2023-04-29T19:35:45.405Z,14.80
2023-04-29T19:38:14.212Z,14.80
2023-04-29T19:40:42.214Z,14.80
2023-04-29T19:43:10.265Z,14.80
2023-04-29T19:45:39.698Z,14.70
2023-04-29T19:48:07.756Z,14.80
2023-04-29T19:50:36.062Z,14.70
2023-04-29T19:53:04.087Z,14.70
2023-04-29T19:55:32.270Z,14.70
2023-04-29T19:58:00.270Z,14.60
2023-04-29T20:00:28.292Z,14.70
2023-04-29T20:02:57.679Z,14.70
2023-04-29T20:05:27.906Z,14.60
2023-04-29T20:07:55.966Z,14.60
2023-04-29T20:10:24.115Z,14.60
2023-04-29T20:12:52.107Z,14.60
2023-04-29T20:15:20.118Z,14.60
2023-04-29T20:17:48.166Z,14.60
2023-04-29T20:20:17.548Z,14.60
2023-04-29T20:22:45.803Z,14.60
2023-04-29T20:25:13.815Z,14.50
2023-04-29T20:27:42.228Z,14.60
2023-04-29T20:30:10.960Z,14.50
2023-04-29T20:32:38.996Z,14.50
2023-04-29T20:35:08.242Z,14.50
2023-04-29T20:37:38.242Z,14.50
2023-04-29T20:40:10.911Z,14.50
2023-04-29T20:42:39.146Z,14.50
2023-04-29T20:45:14.531Z,14.40
2023-04-29T20:47:44.072Z,14.40
2023-04-29T20:50:12.672Z,14.50
2023-04-29T20:52:42.685Z,14.40
2023-04-29T20:55:13.176Z,14.40
2023-04-29T20:57:45.406Z,14.40
2023-04-29T21:00:14.631Z,14.40
2023-04-29T21:02:46.679Z,14.40
2023-04-29T21:05:17.271Z,14.40
2023-04-29T21:07:46.787Z,14.40
2023-04-29T21:10:17.692Z,14.30
2023-04-29T21:12:47.917Z,14.30
2023-04-29T21:15:16.599Z,14.30
2023-04-29T21:17:45.431Z,14.30
2023-04-29T21:20:17.485Z,14.30
2023-04-29T21:23:20.468Z,14.20
2023-04-29T21:25:49.560Z,14.20
2023-04-29T21:28:19.677Z,14.20
2023-04-29T21:30:47.805Z,14.20
2023-04-29T21:33:16.459Z,14.20
2023-04-29T21:35:50.349Z,14.20
2023-04-29T21:38:20.378Z,14.20
2023-04-29T21:40:49.886Z,14.20
2023-04-29T21:43:22.594Z,14.20
2023-04-29T21:45:51.402Z,14.20
2023-04-29T21:48:22.250Z,14.10
2023-04-29T21:50:50.985Z,14.10
2023-04-29T21:53:20.837Z,14.10
2023-04-29T21:55:48.991Z,14.10
2023-04-29T21:58:20.950Z,14.10
2023-04-29T22:00:58.424Z,14.10
2023-04-29T22:03:28.030Z,14.10
2023-04-29T22:05:58.525Z,14.10
2023-04-29T22:08:28.559Z,14.10
2023-04-29T22:11:01.569Z,14.00
2023-04-29T22:13:31.115Z,14.00
2023-04-29T22:15:59.986Z,14.00
2023-04-29T22:18:31.415Z,14.00
2023-04-29T22:21:00.993Z,14.00
2023-04-29T22:23:30.747Z,13.90
2023-04-29T22:26:01.993Z,13.90
2023-04-29T22:28:30.432Z,13.90
2023-04-29T22:30:58.458Z,13.90
2023-04-29T22:33:30.290Z,13.90
2023-04-29T22:36:18.915Z,13.90
2023-04-29T22:39:10.956Z,13.80
2023-04-29T22:41:39.212Z,13.80
2023-04-29T22:44:07.906Z,13.80
2023-04-29T22:46:36.590Z,13.80
2023-04-29T22:49:04.791Z,13.80
2023-04-29T22:51:53.961Z,13.70
2023-04-29T22:54:24.533Z,13.70
2023-04-29T22:56:52.717Z,13.70
2023-04-29T22:59:20.941Z,13.70
2023-04-29T23:01:49.405Z,13.60
2023-04-29T23:04:17.598Z,13.60
2023-04-29T23:06:45.829Z,13.60
2023-04-29T23:09:15.139Z,13.60
2023-04-29T23:11:44.566Z,13.60
2023-04-29T23:14:13.127Z,13.50
2023-04-29T23:16:41.092Z,13.50
2023-04-29T23:19:09.351Z,13.50
2023-04-29T23:21:37.561Z,13.50
2023-04-29T23:24:08.802Z,13.50
2023-04-29T23:26:36.884Z,13.50
2023-04-29T23:29:07.548Z,13.40
2023-04-29T23:31:36.889Z,13.40
2023-04-29T23:34:06.511Z,13.40
2023-04-29T23:36:36.209Z,13.40
2023-04-29T23:39:04.280Z,13.30
2023-04-29T23:41:33.691Z,13.30
2023-04-29T23:44:02.435Z,13.30
2023-04-29T23:46:32.909Z,13.30
2023-04-29T23:49:01.775Z,13.30
2023-04-29T23:51:32.828Z,13.30
2023-04-29T23:54:01.193Z,13.20
2023-04-29T23:56:49.458Z,13.20
2023-04-29T23:59:19.255Z,13.20
